Mercury, NV

3:59 AM PDT on July 24, 2014 (GMT -0700)
MesoWest Mercury NV US ARL SORD (MA23) Elev 3678 ft | 36.66 °N, 116.00 °W | Change Station

Current weather conditions updated 44 minutes ago

Clear
Clear
82 °F
Feels Like 80 °F
N
1
Wind Variable Wind from NW
Gusts 3.0 mph

Today is forecast to be nearly the same temperature as yesterday.

Today
High -- | Low -- °F
--% Chance of Precip.
Yesterday
High -- | Low -- °F
Precip. -- in
5:43 AM 7:56 PM
Waning Crescent, 6% visible
Pressure 29.75 in
Visibility 10.0 miles
Clouds Clear
Heat Index 80 °F
Dew Point 24 °F
Humidity 12%
Rainfall 0.00 in
Snow Depth Not available.
UV 0 out of 12
Pollen 4.60 out of 12
Ozone Good
PM2.5 Good
Flu Activity Not available.
METAR KDRA 241052Z AUTO 21007KT 10SM CLR 31/M04 A2994 RMK AO2 SLP075 T03061044

More Conditions Fewer Conditions

Pressure 29.75 in
Visibility 10.0 miles
Clouds Clear
Heat Index 80 °F
Dew Point 24 °F
Humidity 12%
Rainfall 0.00 in
Snow Depth Not available.
UV 0 out of 12
Pollen 4.60 out of 12
Ozone Good
PM2.5 Good
Flu Activity Not available.
METAR KDRA 241052Z AUTO 21007KT 10SM CLR 31/M04 A2994 RMK AO2 SLP075 T03061044

More Conditions Fewer Conditions

10-Day Weather Forecast

Almanac

Astronomy

Jul. 24, 2014 Rise Set
Actual Time 5:43 AM PDT 7:56 PM PDT
Civil Twilight 5:14 AM PDT 8:25 PM PDT
Nautical Twilight 4:38 AM PDT 9:01 PM PDT
Astronomical Twilight 3:59 AM PDT 9:40 PM PDT
Moon 3:54 AM PDT 6:16 PM PDT
Length of Visible Light 15h 11m
Length of Day
14h 13m
Tomorrow will be 1m 31s shorter.
Waning Crescent, 6% of the Moon is Illuminated
Today
Waning Crescent
Jul 26
New
Aug 3
First Quarter
Aug 10
Full
Aug 17
Last Quarter

Today's Extremes

State Highs State Lows

Community

WunderPhotos

Upload Photos

1,736,966 photos uploaded!

Nearby

Air Quality

  Air Quality AQ Index Pollutant
Yesterday Good
OZONE
Yesterday Good
PM10
Current Good
PM2.5
Current Good
OZONE
Thursday Good
PM10
Thursday Good
OZONE
Friday Good
PM10
Friday Good
OZONE
Saturday Good
PM10
Saturday Good
OZONE
Sunday Good
PM10
Sunday Good
OZONE
Monday Moderate
OZONE
Monday Good
PM10

Snow Depth

Station Depth Elevation
Diamond Peak 0 in 8000 ft
Corral Canyon 0 in 8500 ft
Green Mountain 0 in 8000 ft
Marlette Lake 0 in 8000 ft
Mt. Rose Ski Area 0 in 8850 ft

Earthquake Activity

City Distance Mag. Time & Date
No recent earthquake activity has been reported nearby.
Minimum magnitude displayed is 2.5.

Coastal Water Temperatures

Place Temperature
No Stations Reporting

Nearby Weather Stations

Station Location Temp. Heat Index Dew Point Humidity Wind Precip. Elev Updated Type
MesoWest Mercury , Mercury, NV 82 °F 80 °F 24 °F 12% NW  at  1 mph 0.00 in / hr 3678 ft 3:15 AM PDT MADIS
MesoWest Well 5B , Mercury, NV 70 °F - 19 °F 14% NNW  at  2 mph 0.00 in / hr 3084 ft 3:15 AM PDT MADIS
MesoWest Rogers Spring , Lathrop Wells, NV 89 °F 85 °F 28 °F 11% SSE  at  6 mph 0.00 in / hr 2259 ft 2:40 AM PDT MADIS

Show More Stations Show Fewer Stations